Time;durP1;ratioP1;P1;durP2;ratioP2;P2;SDS_P1;SDS_P2;PMS_P1;PMS_P2;Temp;Humidity;BMP_temperature;BMP_pressure;BME280_temperature;BME280_humidity;BME280_pressure;Samples;Min_cycle;Max_cycle;Signal;HPM_P1;HPM_P2
2022/10/26 00:01:32;;;;;;;21.50;14.07;;;10.10;1.00;;;;;;6320410;22;20384;-77
2022/10/26 00:04:02;;;;;;;22.27;13.53;;;10.10;1.00;;;;;;6320924;22;20392;-77
2022/10/26 00:06:29;;;;;;;20.30;13.90;;;10.10;1.00;;;;;;6318948;22;20412;-77
2022/10/26 00:08:58;;;;;;;18.70;11.73;;;10.00;1.00;;;;;;6321801;22;20396;-81
2022/10/26 00:11:29;;;;;;;21.10;13.30;;;10.00;1.00;;;;;;6326345;22;20413;-79
2022/10/26 00:13:56;;;;;;;21.90;13.50;;;10.00;1.00;;;;;;6322396;22;20495;-84
2022/10/26 00:16:27;;;;;;;24.13;13.90;;;10.00;1.00;;;;;;6323725;22;20419;-78
2022/10/26 00:18:55;;;;;;;19.87;13.33;;;10.00;1.00;;;;;;6321501;22;20426;-77
2022/10/26 00:21:22;;;;;;;19.27;12.40;;;10.00;1.00;;;;;;6323543;22;21172;-83
2022/10/26 00:23:49;;;;;;;19.77;12.13;;;9.90;1.00;;;;;;6322418;22;20448;-79
2022/10/26 00:26:16;;;;;;;19.37;13.57;;;9.90;1.00;;;;;;6322790;22;20421;-79
2022/10/26 00:28:46;;;;;;;24.63;12.77;;;9.90;1.00;;;;;;6323871;22;20434;-81
2022/10/26 00:31:15;;;;;;;19.37;12.50;;;9.90;1.00;;;;;;6324688;22;20391;-78
2022/10/26 00:33:44;;;;;;;21.60;12.07;;;10.00;1.00;;;;;;6322665;22;20790;-80
2022/10/26 00:36:12;;;;;;;19.47;13.37;;;10.00;1.00;;;;;;6323315;22;20439;-84
2022/10/26 00:38:47;;;;;;;23.00;13.53;;;10.00;1.00;;;;;;6326164;22;20388;-84
2022/10/26 00:41:15;;;;;;;23.23;12.63;;;9.90;1.00;;;;;;6326356;22;20434;-84
2022/10/26 00:43:45;;;;;;;19.87;12.17;;;9.90;1.00;;;;;;6321601;22;20394;-81
2022/10/26 00:46:23;;;;;;;20.80;13.80;;;9.90;1.00;;;;;;6328006;22;20452;-79
2022/10/26 00:48:56;;;;;;;16.90;11.23;;;9.90;1.00;;;;;;6323801;22;20425;-82
2022/10/26 00:51:29;;;;;;;19.57;13.23;;;10.00;1.00;;;;;;6328393;22;20434;-82
2022/10/26 00:53:56;;;;;;;22.43;12.23;;;9.90;1.00;;;;;;6325855;22;20884;-83
2022/10/26 00:56:24;;;;;;;22.13;12.90;;;9.90;1.00;;;;;;6330042;22;20422;-82
2022/10/26 00:59:02;;;;;;;19.63;11.37;;;9.80;1.00;;;;;;6327687;22;20389;-81
2022/10/26 01:01:33;;;;;;;17.40;11.97;;;9.80;1.00;;;;;;6326740;22;20429;-82
2022/10/26 01:04:00;;;;;;;20.10;12.77;;;9.90;1.00;;;;;;6313646;22;20405;-83
2022/10/26 01:06:33;;;;;;;20.37;12.33;;;9.80;1.00;;;;;;6342932;22;20428;-82
2022/10/26 01:09:00;;;;;;;18.53;12.10;;;9.80;1.00;;;;;;6323520;22;20421;-83
2022/10/26 01:11:29;;;;;;;19.93;11.80;;;9.80;1.00;;;;;;6322997;22;20438;-79
2022/10/26 01:14:06;;;;;;;17.90;11.77;;;9.90;1.00;;;;;;6308909;22;20432;-80
2022/10/26 01:16:48;;;;;;;20.50;11.00;;;9.90;1.00;;;;;;6337094;22;20434;-78
2022/10/26 01:20:05;;;;;;;17.27;10.90;;;9.90;1.00;;;;;;6319229;22;21120;-79
2022/10/26 01:22:39;;;;;;;20.53;13.27;;;9.80;1.00;;;;;;6329806;22;20409;-81
2022/10/26 01:25:32;;;;;;;19.53;12.07;;;9.70;1.00;;;;;;6293831;22;20437;-82
2022/10/26 01:28:06;;;;;;;22.23;12.60;;;9.70;1.00;;;;;;6323637;22;20431;-78
2022/10/26 01:30:44;;;;;;;19.27;12.70;;;9.60;1.00;;;;;;6326816;22;20471;-84
2022/10/26 01:33:43;;;;;;;20.03;11.43;;;9.60;1.00;;;;;;6327307;22;20449;-83
2022/10/26 01:36:13;;;;;;;18.70;10.90;;;9.60;1.00;;;;;;6311207;22;20401;-83
2022/10/26 01:38:55;;;;;;;18.90;11.30;;;9.60;1.00;;;;;;6312856;22;20385;-80
2022/10/26 01:41:33;;;;;;;17.00;11.93;;;9.50;1.00;;;;;;6300853;22;20389;-82
2022/10/26 01:44:14;;;;;;;21.63;12.20;;;9.50;1.00;;;;;;6327992;22;20371;-83
2022/10/26 01:46:53;;;;;;;20.20;11.70;;;9.50;1.00;;;;;;6324389;22;20430;-84
2022/10/26 01:49:28;;;;;;;18.60;11.90;;;9.50;1.00;;;;;;6329238;22;20420;-82
2022/10/26 01:51:56;;;;;;;21.20;11.23;;;9.40;1.00;;;;;;6330493;22;20228;-84
2022/10/26 01:54:23;;;;;;;17.20;11.77;;;9.40;1.00;;;;;;6336202;22;20402;-78
2022/10/26 01:57:04;;;;;;;16.17;11.20;;;9.40;1.00;;;;;;6323367;22;20435;-78
2022/10/26 02:00:03;;;;;;;19.23;11.80;;;9.40;1.00;;;;;;6333147;22;20406;-79
2022/10/26 02:03:03;;;;;;;18.47;11.17;;;9.40;1.00;;;;;;6324848;22;20434;-78
2022/10/26 02:06:03;;;;;;;21.43;11.90;;;9.40;1.00;;;;;;6323541;22;20387;-82
2022/10/26 02:09:04;;;;;;;20.70;12.53;;;9.40;1.00;;;;;;6322976;22;21338;-78
2022/10/26 02:11:41;;;;;;;18.57;11.40;;;9.50;1.00;;;;;;6322846;22;20391;-85
2022/10/26 02:14:22;;;;;;;16.50;11.13;;;9.40;1.00;;;;;;6322780;22;20397;-78
2022/10/26 02:17:10;;;;;;;17.07;11.53;;;9.40;1.00;;;;;;6252528;22;20416;-78
2022/10/26 02:19:46;;;;;;;22.30;12.20;;;9.40;1.00;;;;;;6293160;22;20430;-77
2022/10/26 02:22:22;;;;;;;16.60;10.90;;;9.40;1.00;;;;;;6263037;22;21110;-80
2022/10/26 02:24:53;;;;;;;19.00;11.37;;;9.40;1.00;;;;;;6291511;22;20385;-84
2022/10/26 02:27:25;;;;;;;17.50;11.90;;;9.40;1.00;;;;;;6290805;22;20389;-81
2022/10/26 02:30:01;;;;;;;21.20;12.53;;;9.40;1.00;;;;;;6282796;22;20416;-79
2022/10/26 02:32:34;;;;;;;20.30;11.53;;;9.20;1.00;;;;;;6298269;22;20420;-84
2022/10/26 02:35:08;;;;;;;20.20;11.67;;;9.20;1.00;;;;;;6279822;22;20391;-80
2022/10/26 02:37:38;;;;;;;18.95;10.85;;;9.00;1.00;;;;;;6293880;22;20420;-80
2022/10/26 02:40:11;;;;;;;19.92;12.25;;;9.00;1.00;;;;;;6286683;22;20927;-80
2022/10/26 02:42:45;;;;;;;23.90;13.07;;;9.00;1.00;;;;;;6270143;22;20263;-79
2022/10/26 02:45:22;;;;;;;18.73;11.67;;;8.90;1.00;;;;;;6309419;22;20501;-80
2022/10/26 02:47:49;;;;;;;20.27;12.07;;;8.90;1.00;;;;;;6287731;22;20427;-80
2022/10/26 02:50:26;;;;;;;17.50;12.80;;;8.80;1.00;;;;;;6296071;22;20215;-82
2022/10/26 02:53:03;;;;;;;16.95;11.35;;;8.80;1.00;;;;;;6289446;22;20542;-85
2022/10/26 02:55:36;;;;;;;15.93;11.00;;;8.80;1.00;;;;;;6293701;22;20681;-78
2022/10/26 02:58:13;;;;;;;19.50;12.00;;;8.90;1.00;;;;;;6290840;22;20209;-83
2022/10/26 03:00:45;;;;;;;17.50;12.85;;;8.90;1.00;;;;;;6281733;22;20213;-77
2022/10/26 03:03:14;;;;;;;17.02;11.82;;;8.90;1.00;;;;;;6295594;22;20274;-78
2022/10/26 03:05:43;;;;;;;17.70;12.10;;;8.90;1.00;;;;;;6292599;22;20216;-84
2022/10/26 03:08:10;;;;;;;14.75;11.50;;;8.90;1.00;;;;;;6293412;22;20987;-77
2022/10/26 03:10:45;;;;;;;19.55;12.02;;;8.80;1.00;;;;;;6289278;22;20904;-79
2022/10/26 03:13:15;;;;;;;16.87;11.87;;;8.80;1.00;;;;;;6289797;22;20237;-78
2022/10/26 03:15:45;;;;;;;16.98;10.73;;;8.70;1.00;;;;;;6296089;22;20460;-83
2022/10/26 03:18:14;;;;;;;15.10;10.80;;;8.70;1.00;;;;;;6294989;22;20642;-80
2022/10/26 03:20:46;;;;;;;15.13;10.60;;;8.70;1.00;;;;;;6278983;22;20428;-78
2022/10/26 03:23:15;;;;;;;15.32;11.23;;;8.70;1.00;;;;;;6287018;22;20418;-81
2022/10/26 03:25:45;;;;;;;16.47;10.13;;;8.60;1.00;;;;;;6279276;22;20217;-82
2022/10/26 03:28:14;;;;;;;20.97;13.40;;;8.60;1.00;;;;;;6294072;22;20398;-82
2022/10/26 03:30:45;;;;;;;19.13;11.87;;;8.70;1.00;;;;;;6296354;22;20417;-83
2022/10/26 03:33:14;;;;;;;16.38;11.77;;;8.60;1.00;;;;;;6295174;22;20388;-83
2022/10/26 03:35:56;;;;;;;16.63;11.63;;;8.70;1.00;;;;;;6295770;22;20260;-81
2022/10/26 03:38:26;;;;;;;16.77;11.52;;;8.60;1.00;;;;;;6285973;22;20208;-78
2022/10/26 03:40:56;;;;;;;18.80;12.95;;;8.60;1.00;;;;;;6280628;22;20200;-79
2022/10/26 03:43:24;;;;;;;18.05;12.32;;;8.50;1.00;;;;;;6293246;22;20278;-78
2022/10/26 03:45:54;;;;;;;17.90;11.55;;;8.50;1.00;;;;;;6266978;22;20228;-79
2022/10/26 03:48:25;;;;;;;18.60;12.35;;;8.50;1.00;;;;;;6293777;22;20194;-79
2022/10/26 03:51:04;;;;;;;16.10;11.55;;;8.50;1.00;;;;;;6282520;22;20235;-78
2022/10/26 03:53:31;;;;;;;20.58;12.70;;;8.40;1.00;;;;;;6309011;22;20214;-79
2022/10/26 03:55:59;;;;;;;16.67;12.30;;;8.40;1.00;;;;;;6266066;22;20212;-78
2022/10/26 03:58:27;;;;;;;20.13;12.85;;;8.30;1.00;;;;;;6317225;22;20223;-84
2022/10/26 04:00:54;;;;;;;23.92;15.05;;;8.30;1.00;;;;;;6294703;22;20216;-83
2022/10/26 04:03:34;;;;;;;18.70;14.35;;;8.30;1.00;;;;;;6292854;22;20220;-77
2022/10/26 04:06:05;;;;;;;20.67;13.82;;;8.20;1.00;;;;;;6296027;22;20200;-83
2022/10/26 04:08:35;;;;;;;17.67;12.15;;;8.30;1.00;;;;;;6298993;22;20229;-83
2022/10/26 04:11:04;;;;;;;17.95;12.63;;;8.30;1.00;;;;;;6265585;22;20204;-82
2022/10/26 04:13:32;;;;;;;16.50;11.50;;;8.30;1.00;;;;;;6293056;22;20209;-83
2022/10/26 04:16:03;;;;;;;20.60;12.77;;;8.30;1.00;;;;;;6293214;22;20203;-86
2022/10/26 04:18:31;;;;;;;21.52;18.58;;;8.30;1.00;;;;;;6293156;22;20883;-84
2022/10/26 04:21:08;;;;;;;18.23;12.43;;;8.30;1.00;;;;;;6289870;22;20221;-80
2022/10/26 04:23:36;;;;;;;18.95;13.35;;;8.30;1.00;;;;;;6279440;22;20290;-80
2022/10/26 04:26:06;;;;;;;19.17;13.02;;;8.20;1.00;;;;;;6302596;22;20206;-81
2022/10/26 04:28:35;;;;;;;19.48;11.45;;;8.20;1.00;;;;;;6288814;22;20217;-78
2022/10/26 04:31:06;;;;;;;20.63;14.50;;;8.20;1.00;;;;;;6281126;22;20208;-83
2022/10/26 04:33:36;;;;;;;19.23;12.25;;;8.10;1.00;;;;;;6306173;22;20571;-78
2022/10/26 04:36:13;;;;;;;19.45;11.68;;;8.10;1.00;;;;;;6291271;22;20197;-85
2022/10/26 04:39:04;;;;;;;18.23;13.38;;;8.10;1.00;;;;;;6279048;22;20190;-86
2022/10/26 04:41:41;;;;;;;18.83;11.95;;;8.10;1.00;;;;;;6273026;22;20302;-86
2022/10/26 04:44:08;;;;;;;17.13;10.98;;;8.00;1.00;;;;;;6287227;22;20211;-78
2022/10/26 04:46:35;;;;;;;17.63;11.93;;;8.10;1.00;;;;;;6276591;22;20245;-84
2022/10/26 04:49:08;;;;;;;21.67;13.85;;;8.10;1.00;;;;;;6294375;22;21008;-83
2022/10/26 04:51:36;;;;;;;17.75;11.90;;;8.10;1.00;;;;;;6296953;22;20267;-83
2022/10/26 04:54:04;;;;;;;16.95;11.85;;;8.10;1.00;;;;;;6301741;22;20224;-83
2022/10/26 04:56:34;;;;;;;17.38;13.45;;;8.10;1.00;;;;;;6303821;22;20211;-83
2022/10/26 04:59:04;;;;;;;17.80;11.13;;;8.20;1.00;;;;;;6286225;22;20205;-80
2022/10/26 05:01:34;;;;;;;15.65;11.88;;;8.10;1.00;;;;;;6285639;22;20289;-80
2022/10/26 05:04:04;;;;;;;21.30;13.00;;;8.10;1.00;;;;;;6284896;22;20217;-78
2022/10/26 05:06:31;;;;;;;18.35;10.68;;;8.10;1.00;;;;;;6272763;22;20692;-80
2022/10/26 05:09:05;;;;;;;14.10;9.80;;;8.10;1.00;;;;;;6274106;22;20995;-80
2022/10/26 05:11:33;;;;;;;15.45;10.10;;;8.10;1.00;;;;;;6292917;22;21098;-87
2022/10/26 05:14:01;;;;;;;16.60;11.00;;;8.00;1.00;;;;;;6293242;22;20189;-85
2022/10/26 05:16:28;;;;;;;16.83;10.60;;;7.90;1.00;;;;;;6291956;22;20213;-86
2022/10/26 05:18:55;;;;;;;17.48;11.15;;;7.90;1.00;;;;;;6294774;22;20225;-85
2022/10/26 05:21:24;;;;;;;13.85;9.85;;;7.90;1.00;;;;;;6294631;22;20218;-84
2022/10/26 05:23:52;;;;;;;16.25;12.27;;;7.90;1.00;;;;;;6302184;22;20212;-87
2022/10/26 05:26:26;;;;;;;15.10;10.55;;;7.90;1.00;;;;;;6295669;22;20215;-87
2022/10/26 05:28:53;;;;;;;16.15;10.50;;;8.00;1.00;;;;;;6289399;22;20771;-79
2022/10/26 05:31:27;;;;;;;17.50;11.50;;;8.00;1.00;;;;;;6287435;22;20208;-80
2022/10/26 05:33:54;;;;;;;18.20;11.32;;;8.00;1.00;;;;;;6287053;22;20221;-80
2022/10/26 05:36:28;;;;;;;24.00;12.00;;;8.00;1.00;;;;;;6287239;22;21083;-78
2022/10/26 05:39:04;;;;;;;32.75;12.25;;;8.00;1.00;;;;;;6274562;22;20215;-86
2022/10/26 05:41:36;;;;;;;26.73;13.52;;;8.10;1.00;;;;;;6292513;22;20246;-87
2022/10/26 05:44:06;;;;;;;34.33;13.70;;;8.10;1.00;;;;;;6295449;22;21034;-83
2022/10/26 05:46:36;;;;;;;30.75;13.60;;;8.10;1.00;;;;;;6295087;22;20241;-83
2022/10/26 05:49:05;;;;;;;38.08;14.40;;;8.10;1.00;;;;;;6286539;22;20212;-86
2022/10/26 05:51:33;;;;;;;25.67;11.88;;;8.10;1.00;;;;;;6312509;22;20890;-86
2022/10/26 05:54:04;;;;;;;22.45;10.98;;;8.10;1.00;;;;;;6266683;22;20219;-83
2022/10/26 05:56:45;;;;;;;49.40;14.23;;;8.20;1.00;;;;;;6291156;22;20213;-83
2022/10/26 05:59:16;;;;;;;40.25;13.70;;;8.20;1.00;;;;;;6296571;22;20217;-82
2022/10/26 06:02:03;;;;;;;42.65;14.93;;;8.20;1.00;;;;;;6287993;22;20298;-82
2022/10/26 06:04:37;;;;;;;27.50;11.35;;;8.30;1.00;;;;;;6287271;22;20210;-81
2022/10/26 06:07:10;;;;;;;16.67;10.68;;;8.30;1.00;;;;;;6289401;22;20204;-83
2022/10/26 06:09:38;;;;;;;29.38;12.52;;;8.40;1.00;;;;;;6289169;22;20321;-83
2022/10/26 06:12:09;;;;;;;25.20;11.48;;;8.30;1.00;;;;;;6289003;22;20549;-83
2022/10/26 06:14:36;;;;;;;21.80;11.50;;;8.30;1.00;;;;;;6288432;22;20288;-82
2022/10/26 06:17:18;;;;;;;20.17;10.10;;;8.30;1.00;;;;;;6289288;22;20292;-82
2022/10/26 06:19:58;;;;;;;19.67;11.40;;;8.30;1.00;;;;;;6276861;22;20273;-83
2022/10/26 06:22:39;;;;;;;18.75;10.70;;;8.20;1.00;;;;;;6288497;22;20291;-82
2022/10/26 06:25:19;;;;;;;18.77;11.38;;;8.30;1.00;;;;;;6275914;22;20241;-82
2022/10/26 06:27:56;;;;;;;28.17;12.27;;;8.30;1.00;;;;;;6284908;22;20287;-80
2022/10/26 06:30:23;;;;;;;15.93;10.77;;;8.30;1.00;;;;;;6275423;22;20299;-81
2022/10/26 06:32:55;;;;;;;20.77;11.45;;;8.30;1.00;;;;;;6273855;22;20261;-82
2022/10/26 06:35:37;;;;;;;20.38;12.32;;;8.30;1.00;;;;;;6276456;22;20912;-82
2022/10/26 06:38:10;;;;;;;19.33;12.30;;;8.30;1.00;;;;;;6279539;22;20219;-82
2022/10/26 06:40:41;;;;;;;38.85;16.90;;;8.20;1.00;;;;;;6288231;22;20256;-82
2022/10/26 06:43:16;;;;;;;27.13;14.40;;;8.20;1.00;;;;;;6289504;22;20284;-81
2022/10/26 06:45:53;;;;;;;26.58;15.38;;;8.30;1.00;;;;;;6274521;22;20233;-82
2022/10/26 06:48:27;;;;;;;20.95;12.05;;;8.30;1.00;;;;;;6286926;22;20219;-82
2022/10/26 06:50:55;;;;;;;22.40;13.80;;;8.30;1.00;;;;;;6288327;22;20215;-82
2022/10/26 06:53:27;;;;;;;19.40;12.15;;;8.40;1.00;;;;;;6294811;22;20599;-81
2022/10/26 06:55:59;;;;;;;17.23;12.23;;;8.40;1.00;;;;;;6283025;22;20733;-82
2022/10/26 06:58:32;;;;;;;17.15;10.65;;;8.50;1.00;;;;;;6295067;22;20226;-81
2022/10/26 07:00:59;;;;;;;19.50;12.50;;;8.60;1.00;;;;;;6284637;22;20222;-81
2022/10/26 07:03:26;;;;;;;16.60;11.80;;;8.60;1.00;;;;;;6286672;22;20434;-81
2022/10/26 07:05:53;;;;;;;17.80;13.90;;;8.70;1.00;;;;;;6287780;22;20450;-81
2022/10/26 07:08:21;;;;;;;17.48;11.48;;;8.70;1.00;;;;;;6279726;22;20244;-82
2022/10/26 07:10:49;;;;;;;16.88;11.60;;;8.80;1.00;;;;;;6258149;22;20217;-82
2022/10/26 07:13:16;;;;;;;21.13;11.88;;;8.80;1.00;;;;;;6276629;22;20295;-83
2022/10/26 07:15:45;;;;;;;19.80;13.43;;;8.90;1.00;;;;;;6287019;22;20220;-81
2022/10/26 07:18:12;;;;;;;17.30;11.10;;;8.90;1.00;;;;;;6274723;22;20205;-82
2022/10/26 07:20:46;;;;;;;20.25;12.75;;;8.90;1.00;;;;;;6284442;22;21289;-82
2022/10/26 07:23:14;;;;;;;19.33;12.65;;;9.00;1.00;;;;;;6275908;22;20289;-81
2022/10/26 07:25:43;;;;;;;19.00;12.67;;;9.00;1.00;;;;;;6288736;22;20220;-81
2022/10/26 07:28:13;;;;;;;20.83;12.67;;;9.00;1.00;;;;;;6285550;22;20421;-82
2022/10/26 07:30:41;;;;;;;29.92;17.17;;;9.10;1.00;;;;;;6258510;22;20380;-82
2022/10/26 07:33:13;;;;;;;21.23;14.30;;;9.30;1.00;;;;;;6282336;22;20362;-83
2022/10/26 07:35:46;;;;;;;16.50;11.93;;;9.40;1.00;;;;;;6282381;22;20406;-83
2022/10/26 07:38:15;;;;;;;18.70;11.50;;;9.50;1.00;;;;;;6292117;22;20209;-82
2022/10/26 07:40:49;;;;;;;18.50;13.27;;;9.60;1.00;;;;;;6277020;22;20420;-82
2022/10/26 07:43:16;;;;;;;20.73;11.17;;;9.70;1.00;;;;;;6261947;22;20408;-82
2022/10/26 07:45:49;;;;;;;16.57;10.30;;;9.90;1.00;;;;;;6273339;22;20408;-80
2022/10/26 07:48:17;;;;;;;14.73;10.80;;;10.00;1.00;;;;;;6290366;22;20504;-82
2022/10/26 07:50:47;;;;;;;17.03;10.57;;;10.00;1.00;;;;;;6289902;22;20425;-82
2022/10/26 07:53:13;;;;;;;14.90;10.60;;;10.10;1.00;;;;;;6287328;22;20436;-84
2022/10/26 07:55:42;;;;;;;14.10;10.30;;;10.20;1.00;;;;;;6286101;22;20424;-85
2022/10/26 07:58:09;;;;;;;16.23;11.10;;;10.30;1.00;;;;;;6288602;22;20476;-83
2022/10/26 08:00:38;;;;;;;13.80;10.10;;;10.30;1.00;;;;;;6275543;22;20417;-83
2022/10/26 08:03:06;;;;;;;16.17;10.77;;;10.30;1.00;;;;;;6313124;22;20402;-84
2022/10/26 08:05:40;;;;;;;15.00;10.90;;;10.40;1.00;;;;;;6287795;22;20441;-84
2022/10/26 08:08:07;;;;;;;19.37;11.57;;;10.40;1.00;;;;;;6245262;22;20432;-84
2022/10/26 08:10:36;;;;;;;22.93;11.30;;;10.50;1.00;;;;;;6282378;22;20414;-83
2022/10/26 08:13:03;;;;;;;14.07;10.27;;;10.60;1.00;;;;;;6284756;22;20453;-82
2022/10/26 08:15:29;;;;;;;19.90;11.27;;;10.70;1.00;;;;;;6290768;22;20409;-84
2022/10/26 08:17:57;;;;;;;16.47;11.30;;;10.70;1.00;;;;;;6287091;22;20401;-80
2022/10/26 08:20:24;;;;;;;19.83;11.90;;;11.00;1.00;;;;;;6281858;22;20521;-82
2022/10/26 08:22:56;;;;;;;16.30;10.53;;;11.10;1.00;;;;;;6285398;22;20465;-84
2022/10/26 08:25:23;;;;;;;21.00;11.10;;;11.50;1.00;;;;;;6286344;22;20410;-83
2022/10/26 08:27:50;;;;;;;13.83;9.57;;;11.90;1.00;;;;;;6275256;22;20848;-85
2022/10/26 08:30:17;;;;;;;15.00;10.40;;;12.50;1.00;;;;;;6285081;22;20517;-84
2022/10/26 08:32:45;;;;;;;15.07;9.80;;;13.00;1.00;;;;;;6289916;22;20500;-84
2022/10/26 08:35:14;;;;;;;14.17;10.20;;;13.10;1.00;;;;;;6286699;22;20495;-84
2022/10/26 08:37:46;;;;;;;17.30;9.67;;;13.00;1.00;;;;;;6285991;22;20466;-85
2022/10/26 08:40:17;;;;;;;15.63;10.73;;;12.80;1.00;;;;;;6287953;22;20441;-84
2022/10/26 08:42:48;;;;;;;15.77;9.90;;;12.70;1.00;;;;;;6247041;22;20411;-84
2022/10/26 08:45:27;;;;;;;16.03;9.20;;;12.70;1.00;;;;;;6313050;22;20517;-89
2022/10/26 08:48:04;;;;;;;17.00;10.00;;;12.70;1.00;;;;;;6289644;22;20415;-87
2022/10/26 08:50:33;;;;;;;16.30;10.20;;;12.60;1.00;;;;;;6266122;22;20495;-88
2022/10/26 08:53:10;;;;;;;15.00;9.93;;;12.60;1.00;;;;;;6291326;22;20430;-83
2022/10/26 08:55:54;;;;;;;14.50;10.13;;;12.50;1.00;;;;;;6280525;22;20423;-81
2022/10/26 08:58:36;;;;;;;16.40;10.60;;;12.60;1.00;;;;;;6272951;22;20476;-85
2022/10/26 09:01:05;;;;;;;14.20;10.33;;;12.70;1.00;;;;;;6273862;22;20421;-83
2022/10/26 09:03:34;;;;;;;17.80;12.60;;;12.90;1.00;;;;;;6302235;22;20990;-84
2022/10/26 09:06:16;;;;;;;13.43;10.30;;;13.10;1.00;;;;;;6284969;22;21212;-83
2022/10/26 09:08:58;;;;;;;13.70;10.90;;;13.20;1.00;;;;;;6283751;22;20452;-87
2022/10/26 09:11:44;;;;;;;13.70;9.97;;;13.40;1.00;;;;;;6281697;22;20389;-84
2022/10/26 09:14:18;;;;;;;14.00;10.20;;;14.00;1.00;;;;;;6299159;22;20482;-82
2022/10/26 09:16:56;;;;;;;15.27;10.27;;;15.50;1.00;;;;;;6271958;22;21232;-85
2022/10/26 09:19:51;;;;;;;15.07;9.50;;;17.20;1.00;;;;;;6313037;22;20746;-84
2022/10/26 09:22:27;;;;;;;12.30;9.50;;;17.70;1.00;;;;;;6293381;22;20426;-84
2022/10/26 09:24:56;;;;;;;13.73;9.70;;;18.10;1.00;;;;;;6290273;22;20468;-85
2022/10/26 09:27:28;;;;;;;13.87;8.53;;;18.20;1.00;;;;;;6292375;22;20741;-83
2022/10/26 09:29:57;;;;;;;16.13;10.83;;;17.70;1.00;;;;;;6276064;22;21186;-84
2022/10/26 09:32:29;;;;;;;14.27;10.07;;;17.20;1.00;;;;;;6293783;22;20428;-85
2022/10/26 09:35:01;;;;;;;15.03;10.40;;;17.00;1.00;;;;;;6292655;22;20919;-83
2022/10/26 09:37:32;;;;;;;14.00;9.83;;;16.90;1.00;;;;;;6293600;22;20421;-82
2022/10/26 09:40:11;;;;;;;16.63;10.23;;;16.70;1.00;;;;;;6259673;22;20769;-81
2022/10/26 09:42:44;;;;;;;14.83;9.70;;;16.50;1.00;;;;;;6278946;22;20399;-83
2022/10/26 09:45:16;;;;;;;13.73;9.67;;;16.40;1.00;;;;;;6289808;22;20441;-83
2022/10/26 09:47:50;;;;;;;16.00;9.83;;;16.60;1.00;;;;;;6290226;22;20426;-83
2022/10/26 09:50:24;;;;;;;12.00;9.00;;;16.40;1.00;;;;;;6263507;22;20421;-82
2022/10/26 09:52:51;;;;;;;13.90;9.50;;;16.50;1.00;;;;;;6286701;22;21034;-84
2022/10/26 09:55:21;;;;;;;16.33;10.07;;;16.50;1.00;;;;;;6296310;22;20846;-84
2022/10/26 09:57:54;;;;;;;18.03;9.77;;;16.50;1.00;;;;;;6298236;22;20417;-82
2022/10/26 10:00:25;;;;;;;15.57;9.70;;;16.50;1.00;;;;;;6291614;22;21077;-83
2022/10/26 10:02:57;;;;;;;15.97;9.73;;;16.60;1.00;;;;;;6289496;22;20511;-82
2022/10/26 10:05:28;;;;;;;11.10;7.77;;;16.80;1.00;;;;;;6289825;22;20465;-84
2022/10/26 10:08:16;;;;;;;12.47;8.37;;;17.20;1.00;;;;;;6277473;22;20416;-83
2022/10/26 10:11:00;;;;;;;12.60;7.77;;;17.10;1.00;;;;;;6304494;22;20428;-84
2022/10/26 10:13:31;;;;;;;11.63;7.63;;;17.40;1.00;;;;;;6284314;22;20432;-84
2022/10/26 10:16:03;;;;;;;11.77;6.53;;;17.80;1.00;;;;;;6288453;22;20571;-85
2022/10/26 10:18:30;;;;;;;9.60;6.00;;;17.90;1.00;;;;;;6287644;22;21219;-83
2022/10/26 10:20:58;;;;;;;11.90;5.87;;;18.10;1.00;;;;;;6286509;22;20512;-84
2022/10/26 10:23:31;;;;;;;31.80;22.53;;;18.50;1.00;;;;;;6287719;22;20408;-85
2022/10/26 10:26:11;;;;;;;11.30;6.43;;;19.00;1.00;;;;;;6287587;22;20386;-85
2022/10/26 10:28:41;;;;;;;10.80;5.00;;;19.60;1.00;;;;;;6285317;22;20557;-83
2022/10/26 10:31:20;;;;;;;9.33;4.80;;;20.40;1.00;;;;;;6287952;22;20436;-86
2022/10/26 10:33:48;;;;;;;10.93;5.57;;;20.70;1.00;;;;;;6287433;22;20418;-83
2022/10/26 10:36:18;;;;;;;9.47;5.20;;;21.60;1.00;;;;;;6290573;22;20428;-83
2022/10/26 10:38:48;;;;;;;10.73;4.87;;;22.40;1.00;;;;;;6289813;22;20429;-83
2022/10/26 10:41:24;;;;;;;9.03;4.07;;;23.10;1.00;;;;;;6299786;22;20421;-84
2022/10/26 10:43:56;;;;;;;10.77;4.27;;;23.80;1.00;;;;;;6293734;22;20380;-82
2022/10/26 10:46:27;;;;;;;14.13;3.97;;;24.30;1.00;;;;;;6273768;22;20829;-82
2022/10/26 10:49:02;;;;;;;7.20;3.40;;;24.10;1.00;;;;;;6285327;22;20398;-81
2022/10/26 10:51:34;;;;;;;7.20;3.53;;;23.60;1.00;;;;;;6289183;22;20425;-86
2022/10/26 10:54:04;;;;;;;7.87;3.43;;;23.10;1.00;;;;;;6286604;22;20386;-84
2022/10/26 10:56:40;;;;;;;7.80;3.60;;;22.70;1.00;;;;;;6289837;22;20646;-83
2022/10/26 10:59:58;;;;;;;8.23;2.93;;;22.70;1.00;;;;;;6288011;22;20819;-83
2022/10/26 11:03:03;;;;;;;9.53;3.10;;;22.70;1.00;;;;;;6257034;22;20794;-83
2022/10/26 11:05:46;;;;;;;7.70;3.00;;;22.80;1.00;;;;;;6287496;22;20430;-83
2022/10/26 11:08:20;;;;;;;6.97;2.87;;;23.40;1.00;;;;;;6284120;22;20433;-83
2022/10/26 11:10:52;;;;;;;8.53;2.80;;;24.10;1.00;;;;;;6275686;22;20903;-85
2022/10/26 11:13:25;;;;;;;7.60;2.77;;;24.90;1.00;;;;;;6309422;22;20423;-82
2022/10/26 11:15:59;;;;;;;5.80;2.53;;;25.30;1.00;;;;;;6273890;22;20763;-82
2022/10/26 11:18:34;;;;;;;7.37;3.03;;;25.40;1.00;;;;;;6281510;22;20847;-83
2022/10/26 11:21:18;;;;;;;8.43;3.17;;;24.60;1.00;;;;;;6299064;22;20415;-83
2022/10/26 11:23:49;;;;;;;8.23;3.30;;;24.40;1.00;;;;;;6292442;22;20827;-84
2022/10/26 11:26:31;;;;;;;7.60;3.23;;;24.60;1.00;;;;;;6295327;22;20396;-84
2022/10/26 11:29:05;;;;;;;6.23;2.60;;;24.80;1.00;;;;;;6302992;22;20935;-83
2022/10/26 11:31:38;;;;;;;6.83;2.67;;;25.80;1.00;;;;;;6303329;22;20414;-82
2022/10/26 11:34:22;;;;;;;8.53;3.07;;;26.50;1.00;;;;;;6296093;22;20914;-83
2022/10/26 11:36:55;;;;;;;7.50;2.63;;;26.20;1.00;;;;;;6285313;22;20523;-83
2022/10/26 11:39:34;;;;;;;7.03;2.40;;;25.70;1.00;;;;;;6303957;22;20430;-83
2022/10/26 11:42:05;;;;;;;7.30;2.70;;;25.80;1.00;;;;;;6316191;22;20490;-82
2022/10/26 11:44:38;;;;;;;7.93;2.63;;;25.40;1.00;;;;;;6315816;22;20767;-82
2022/10/26 11:47:10;;;;;;;5.90;2.40;;;25.70;1.00;;;;;;6299716;22;20422;-83
2022/10/26 11:49:49;;;;;;;7.80;2.90;;;25.80;1.00;;;;;;6314136;22;20446;-83
2022/10/26 11:52:22;;;;;;;6.30;3.37;;;25.30;1.00;;;;;;6299885;22;20414;-82
2022/10/26 11:54:55;;;;;;;5.77;2.50;;;25.30;1.00;;;;;;6307469;22;20422;-82
2022/10/26 11:57:28;;;;;;;8.43;3.20;;;26.20;1.00;;;;;;6323139;22;20556;-82
2022/10/26 12:00:06;;;;;;;6.67;2.57;;;27.60;1.00;;;;;;6316112;22;21023;-79
2022/10/26 12:02:45;;;;;;;9.10;3.87;;;29.00;1.00;;;;;;6305668;22;20758;-77
2022/10/26 12:05:25;;;;;;;6.00;2.27;;;30.20;1.00;;;;;;6318806;22;20563;-82
2022/10/26 12:08:01;;;;;;;6.43;2.53;;;30.10;1.00;;;;;;6324615;22;20375;-83
2022/10/26 12:10:35;;;;;;;6.30;2.20;;;30.00;1.00;;;;;;6325785;22;20441;-83
2022/10/26 12:13:16;;;;;;;5.77;2.40;;;31.20;1.00;;;;;;6326381;22;20446;-83
2022/10/26 12:15:55;;;;;;;6.20;2.50;;;30.80;1.00;;;;;;6311256;22;20397;-84
2022/10/26 12:18:33;;;;;;;7.50;2.80;;;30.40;1.00;;;;;;6305865;22;20612;-82
2022/10/26 12:21:06;;;;;;;8.00;2.63;;;29.50;1.00;;;;;;6291346;22;20921;-81
2022/10/26 12:23:37;;;;;;;6.27;2.20;;;27.10;1.00;;;;;;6305272;22;20422;-77
2022/10/26 12:26:38;;;;;;;6.47;2.63;;;25.60;1.00;;;;;;6316208;22;20446;-80
2022/10/26 12:29:28;;;;;;;7.00;2.97;;;24.50;1.00;;;;;;6306032;22;20383;-82
2022/10/26 12:31:57;;;;;;;6.53;2.53;;;23.60;1.00;;;;;;6298975;22;20439;-81
2022/10/26 12:34:47;;;;;;;7.60;2.60;;;23.10;1.00;;;;;;6318747;22;20454;-79
2022/10/26 12:37:31;;;;;;;6.50;2.33;;;23.00;1.00;;;;;;6304823;22;20417;-80
2022/10/26 12:40:45;;;;;;;5.80;2.30;;;23.10;1.00;;;;;;6304018;22;20446;-78
2022/10/26 12:43:34;;;;;;;7.20;2.23;;;23.00;1.00;;;;;;6325374;22;20945;-83
2022/10/26 12:46:49;;;;;;;8.47;3.13;;;22.70;1.00;;;;;;6323135;22;20389;-80
2022/10/26 12:50:06;;;;;;;6.07;1.90;;;23.00;1.00;;;;;;6223891;23;20956;-78
2022/10/26 12:52:46;;;;;;;7.00;2.50;;;24.40;1.00;;;;;;6211355;23;20526;-78
2022/10/26 12:55:44;;;;;;;8.53;3.10;;;23.90;1.00;;;;;;6303550;22;20938;-79
2022/10/26 12:58:49;;;;;;;9.23;3.67;;;23.40;1.00;;;;;;6319952;22;20436;-78
2022/10/26 13:01:57;;;;;;;6.60;2.77;;;23.60;1.00;;;;;;6320918;22;20443;-79
2022/10/26 13:05:06;;;;;;;6.27;2.53;;;24.50;1.00;;;;;;6324661;22;20429;-79
2022/10/26 13:07:39;;;;;;;6.60;2.37;;;24.80;1.00;;;;;;6307495;22;20410;-80
2022/10/26 13:10:25;;;;;;;6.10;1.97;;;24.50;1.00;;;;;;6309141;22;20394;-80
2022/10/26 13:12:55;;;;;;;8.87;2.63;;;24.10;1.00;;;;;;6304802;22;20401;-81
2022/10/26 13:15:36;;;;;;;6.27;2.57;;;23.80;1.00;;;;;;6310544;22;20439;-80
2022/10/26 13:18:15;;;;;;;7.40;2.77;;;23.40;1.00;;;;;;6293840;22;20427;-83
2022/10/26 13:21:07;;;;;;;6.40;2.30;;;23.20;1.00;;;;;;6293087;22;20555;-80
2022/10/26 13:23:46;;;;;;;6.50;2.00;;;22.90;1.00;;;;;;6308251;22;20385;-82
2022/10/26 13:26:18;;;;;;;6.53;2.50;;;22.20;1.00;;;;;;6297913;22;21008;-81